Time;durP1;ratioP1;P1;durP2;ratioP2;P2;SDS_P1;SDS_P2;PMS_P1;PMS_P2;Temp;Humidity;BMP_temperature;BMP_pressure;BME280_temperature;BME280_humidity;BME280_pressure;Samples;Min_cycle;Max_cycle;Signal;HPM_P1;HPM_P2
2023/04/27 00:01:10;;;;;;;;;;;;;;;13.53;50.87;99127.16;5092445;28;20296;-42
2023/04/27 00:03:36;;;;;;;;;;;;;;;13.48;50.99;99136.72;5092390;28;19941;-42
2023/04/27 00:06:02;;;;;;;;;;;;;;;13.64;50.77;99135.13;5091873;28;20440;-42
2023/04/27 00:08:27;;;;;;;;;;;;;;;13.70;50.17;99141.38;5092523;28;19912;-42
2023/04/27 00:10:53;;;;;;;;;;;;;;;13.70;50.50;99149.41;5092137;28;20275;-42
2023/04/27 00:13:18;;;;;;;;;;;;;;;13.90;49.69;99140.97;5091763;28;19919;-41
2023/04/27 00:15:44;;;;;;;;;;;;;;;13.91;49.84;99153.28;5092196;28;19951;-41
2023/04/27 00:18:09;;;;;;;;;;;;;;;13.37;50.67;99160.78;5092075;28;19916;-42
2023/04/27 00:20:35;;;;;;;;;;;;;;;13.51;50.97;99164.81;5091810;28;19916;-42
2023/04/27 00:23:00;;;;;;;;;;;;;;;13.19;51.91;99159.84;5091566;28;20140;-42
2023/04/27 00:25:25;;;;;;;;;;;;;;;13.35;51.87;99165.56;5091128;28;20261;-42
2023/04/27 00:27:51;;;;;;;;;;;;;;;13.87;50.84;99166.31;5091074;28;19952;-43
2023/04/27 00:30:16;;;;;;;;;;;;;;;14.18;50.35;99172.22;5091938;28;19916;-42
2023/04/27 00:32:41;;;;;;;;;;;;;;;13.76;51.59;99171.72;5091669;28;20571;-42
2023/04/27 00:35:07;;;;;;;;;;;;;;;14.42;49.64;99183.59;5091687;28;19918;-42
2023/04/27 00:37:32;;;;;;;;;;;;;;;14.07;51.35;99181.94;5091783;28;19919;-42
2023/04/27 00:39:58;;;;;;;;;;;;;;;14.05;51.00;99186.72;5090076;28;20357;-43
2023/04/27 00:42:23;;;;;;;;;;;;;;;13.88;52.18;99185.88;5091123;28;19947;-43
2023/04/27 00:44:49;;;;;;;;;;;;;;;13.27;53.78;99191.56;5091040;28;20344;-43
2023/04/27 00:47:16;;;;;;;;;;;;;;;13.16;54.14;99186.25;5091504;28;19959;-42
2023/04/27 00:49:41;;;;;;;;;;;;;;;13.39;53.60;99188.09;5091454;28;19934;-42
2023/04/27 00:52:06;;;;;;;;;;;;;;;12.97;54.00;99197.03;5090754;28;19912;-42
2023/04/27 00:54:32;;;;;;;;;;;;;;;13.03;54.05;99196.09;5091298;28;20261;-42
2023/04/27 00:56:58;;;;;;;;;;;;;;;12.84;54.13;99197.25;5091348;28;19912;-42
2023/04/27 00:59:24;;;;;;;;;;;;;;;13.11;54.18;99192.25;5091330;28;19912;-42
2023/04/27 01:01:49;;;;;;;;;;;;;;;13.14;53.97;99193.69;5091174;28;20329;-42
2023/04/27 01:04:16;;;;;;;;;;;;;;;13.05;53.93;99193.19;5090257;28;20372;-42
2023/04/27 01:06:42;;;;;;;;;;;;;;;13.27;53.51;99201.44;5090887;28;20311;-42
2023/04/27 01:09:08;;;;;;;;;;;;;;;13.65;52.86;99205.44;5090451;28;19916;-42
2023/04/27 01:11:33;;;;;;;;;;;;;;;13.54;52.05;99207.13;5090652;28;19982;-42
2023/04/27 01:14:02;;;;;;;;;;;;;;;13.30;52.96;99212.47;5090954;28;19947;-40
2023/04/27 01:16:27;;;;;;;;;;;;;;;13.66;52.23;99218.59;5090987;28;20319;-42
2023/04/27 01:18:53;;;;;;;;;;;;;;;12.76;52.93;99216.31;5091141;28;19911;-42
2023/04/27 01:21:18;;;;;;;;;;;;;;;13.17;51.94;99215.38;5090734;28;19974;-43
2023/04/27 01:23:43;;;;;;;;;;;;;;;12.99;51.61;99226.19;5087944;28;19912;-42
2023/04/27 01:26:10;;;;;;;;;;;;;;;13.16;51.65;99227.13;5088358;28;20005;-43
2023/04/27 01:28:36;;;;;;;;;;;;;;;13.42;50.52;99227.69;5090893;28;20050;-43
2023/04/27 01:31:01;;;;;;;;;;;;;;;12.98;50.92;99230.69;5090472;28;19939;-43
2023/04/27 01:33:26;;;;;;;;;;;;;;;12.74;51.28;99237.06;5090696;28;20063;-43
2023/04/27 01:35:51;;;;;;;;;;;;;;;13.03;50.45;99230.03;5090582;28;19930;-43
2023/04/27 01:38:17;;;;;;;;;;;;;;;12.59;50.74;99226.84;5089062;28;19943;-43
2023/04/27 01:40:42;;;;;;;;;;;;;;;12.84;49.99;99240.78;5090121;28;19908;-43
2023/04/27 01:43:07;;;;;;;;;;;;;;;12.62;50.02;99239.72;5089712;28;19918;-43
2023/04/27 01:45:32;;;;;;;;;;;;;;;12.58;50.13;99246.53;5089958;28;19962;-43
2023/04/27 01:47:58;;;;;;;;;;;;;;;12.68;49.80;99249.50;5090347;28;19912;-43
2023/04/27 01:50:23;;;;;;;;;;;;;;;12.62;50.03;99242.38;5089987;28;19938;-43
2023/04/27 01:52:48;;;;;;;;;;;;;;;12.77;49.51;99245.41;5089788;28;19913;-43
2023/04/27 01:55:13;;;;;;;;;;;;;;;12.75;49.33;99250.19;5090230;28;20473;-42
2023/04/27 01:57:39;;;;;;;;;;;;;;;12.49;50.17;99249.56;5090186;28;19920;-42
2023/04/27 02:00:05;;;;;;;;;;;;;;;12.79;48.74;99247.88;5090140;28;20328;-42
2023/04/27 02:02:30;;;;;;;;;;;;;;;12.75;49.51;99247.50;5089876;28;20582;-42
2023/04/27 02:04:55;;;;;;;;;;;;;;;12.97;48.52;99260.34;5089878;28;20375;-42
2023/04/27 02:07:20;;;;;;;;;;;;;;;12.69;49.36;99259.91;5090235;28;19919;-42
2023/04/27 02:09:46;;;;;;;;;;;;;;;12.74;49.66;99258.41;5090230;28;20015;-43
2023/04/27 02:12:11;;;;;;;;;;;;;;;12.74;49.19;99263.75;5090120;28;19912;-42
2023/04/27 02:14:36;;;;;;;;;;;;;;;12.36;49.77;99263.09;5089937;28;19939;-44
2023/04/27 02:17:02;;;;;;;;;;;;;;;13.26;47.88;99269.28;5090161;28;19920;-42
2023/04/27 02:19:27;;;;;;;;;;;;;;;13.01;48.33;99272.97;5089747;28;20283;-44
2023/04/27 02:21:52;;;;;;;;;;;;;;;13.18;47.42;99270.44;5089644;28;19912;-42
2023/04/27 02:24:18;;;;;;;;;;;;;;;13.11;47.86;99267.88;5089779;28;19953;-43
2023/04/27 02:26:43;;;;;;;;;;;;;;;13.40;47.04;99275.22;5089894;28;20311;-42
2023/04/27 02:29:08;;;;;;;;;;;;;;;13.10;48.25;99279.63;5089873;28;19916;-42
2023/04/27 02:31:34;;;;;;;;;;;;;;;12.88;48.21;99275.88;5089589;28;19912;-42
2023/04/27 02:33:59;;;;;;;;;;;;;;;13.37;47.08;99271.16;5089829;28;20045;-43
2023/04/27 02:36:24;;;;;;;;;;;;;;;13.47;47.08;99273.25;5089525;28;19912;-43
2023/04/27 02:38:50;;;;;;;;;;;;;;;12.78;47.80;99273.75;5089470;28;19913;-42
2023/04/27 02:41:15;;;;;;;;;;;;;;;12.36;48.92;99278.28;5089784;28;19916;-43
2023/04/27 02:43:40;;;;;;;;;;;;;;;13.18;47.49;99283.00;5089819;28;19923;-42
2023/04/27 02:46:05;;;;;;;;;;;;;;;13.11;47.03;99275.06;5089543;28;19948;-42
2023/04/27 02:48:31;;;;;;;;;;;;;;;13.22;46.46;99282.28;5089699;28;20515;-42
2023/04/27 02:50:56;;;;;;;;;;;;;;;13.24;46.78;99290.06;5092487;28;19919;-42
2023/04/27 02:53:22;;;;;;;;;;;;;;;13.13;46.98;99281.00;5093685;28;19912;-44
2023/04/27 02:55:48;;;;;;;;;;;;;;;13.17;46.34;99284.03;5093702;28;19927;-42
2023/04/27 02:58:13;;;;;;;;;;;;;;;13.43;46.20;99294.28;5093381;28;19931;-43
2023/04/27 03:00:39;;;;;;;;;;;;;;;13.26;46.51;99298.66;5093245;28;20004;-41
2023/04/27 03:03:05;;;;;;;;;;;;;;;13.14;46.48;99298.66;5093610;28;19916;-41
2023/04/27 03:05:30;;;;;;;;;;;;;;;12.84;47.06;99291.53;5093709;28;20398;-41
2023/04/27 03:07:55;;;;;;;;;;;;;;;12.88;46.65;99295.38;5093680;28;20023;-43
2023/04/27 03:10:21;;;;;;;;;;;;;;;13.20;46.61;99297.75;5093367;28;19924;-41
2023/04/27 03:12:46;;;;;;;;;;;;;;;13.72;45.32;99293.56;5093237;28;19912;-43
2023/04/27 03:15:11;;;;;;;;;;;;;;;13.83;45.19;99303.44;5093084;28;19918;-43
2023/04/27 03:17:37;;;;;;;;;;;;;;;13.93;44.67;99314.34;5093070;28;19916;-42
2023/04/27 03:20:03;;;;;;;;;;;;;;;13.81;44.41;99302.84;5093066;28;19955;-42
2023/04/27 03:22:29;;;;;;;;;;;;;;;13.62;44.54;99311.00;5092786;28;20499;-42
2023/04/27 03:24:54;;;;;;;;;;;;;;;13.74;44.75;99307.50;5092747;28;19920;-42
2023/04/27 03:27:20;;;;;;;;;;;;;;;13.79;43.76;99312.97;5092751;28;19916;-42
2023/04/27 03:29:45;;;;;;;;;;;;;;;13.35;45.39;99316.03;5092935;28;20324;-40
2023/04/27 03:32:10;;;;;;;;;;;;;;;13.08;46.10;99315.63;5092775;28;20364;-42
2023/04/27 03:34:36;;;;;;;;;;;;;;;12.78;46.56;99321.00;5092653;28;19916;-42
2023/04/27 03:37:01;;;;;;;;;;;;;;;13.03;46.44;99318.16;5092628;28;20370;-42
2023/04/27 03:39:26;;;;;;;;;;;;;;;12.82;46.59;99312.31;5092341;28;20578;-42
2023/04/27 03:41:52;;;;;;;;;;;;;;;13.37;45.67;99323.81;5092564;28;19958;-42
2023/04/27 03:44:17;;;;;;;;;;;;;;;13.75;44.49;99319.84;5092379;28;19912;-42
2023/04/27 03:46:42;;;;;;;;;;;;;;;13.49;45.38;99327.28;5092483;28;20494;-41
2023/04/27 03:49:08;;;;;;;;;;;;;;;13.33;46.35;99327.97;5092075;28;19920;-42
2023/04/27 03:51:33;;;;;;;;;;;;;;;13.48;45.03;99331.03;5091345;28;19923;-42
2023/04/27 03:53:59;;;;;;;;;;;;;;;13.24;45.83;99330.97;5091555;28;20514;-42
2023/04/27 03:56:24;;;;;;;;;;;;;;;13.51;45.35;99332.41;5091318;28;19916;-42
2023/04/27 03:58:49;;;;;;;;;;;;;;;13.63;45.12;99344.72;5091400;28;19912;-42
2023/04/27 04:01:15;;;;;;;;;;;;;;;13.70;45.13;99333.91;5095511;28;19930;-42
2023/04/27 04:03:41;;;;;;;;;;;;;;;13.21;45.38;99343.97;5106213;28;19961;-42
2023/04/27 04:06:06;;;;;;;;;;;;;;;13.82;44.21;99344.59;5112053;28;19923;-42
2023/04/27 04:08:33;;;;;;;;;;;;;;;14.07;43.77;99347.81;5111789;28;19912;-42
2023/04/27 04:10:58;;;;;;;;;;;;;;;14.10;43.10;99353.75;5111611;28;20625;-41
2023/04/27 04:13:23;;;;;;;;;;;;;;;13.81;44.41;99351.81;5111736;28;19912;-40
2023/04/27 04:15:49;;;;;;;;;;;;;;;13.75;45.05;99357.28;5111685;28;20068;-43
2023/04/27 04:18:14;;;;;;;;;;;;;;;13.39;45.10;99357.28;5091705;28;19923;-42
2023/04/27 04:20:39;;;;;;;;;;;;;;;13.03;46.31;99361.72;5091025;28;19999;-41
2023/04/27 04:23:05;;;;;;;;;;;;;;;13.34;45.65;99362.47;5091075;28;19912;-42
2023/04/27 04:25:31;;;;;;;;;;;;;;;13.55;44.89;99371.78;5090516;28;20325;-42
2023/04/27 04:27:56;;;;;;;;;;;;;;;13.35;45.24;99374.00;5090686;28;19932;-41
2023/04/27 04:30:22;;;;;;;;;;;;;;;13.35;46.89;99368.66;5089998;28;19973;-41
2023/04/27 04:32:47;;;;;;;;;;;;;;;14.04;43.82;99375.03;5091011;28;20010;-42
2023/04/27 04:35:13;;;;;;;;;;;;;;;14.00;43.93;99373.88;5091498;28;19912;-42
2023/04/27 04:37:38;;;;;;;;;;;;;;;13.87;44.21;99376.81;5091180;28;19912;-42
2023/04/27 04:40:07;;;;;;;;;;;;;;;13.99;43.93;99372.28;5091466;28;19919;-42
2023/04/27 04:42:33;;;;;;;;;;;;;;;13.59;44.50;99377.50;5090632;28;19912;-42
2023/04/27 04:44:58;;;;;;;;;;;;;;;13.81;43.93;99383.91;5090368;28;19919;-42
2023/04/27 04:47:23;;;;;;;;;;;;;;;13.61;44.35;99386.94;5089425;28;19912;-41
2023/04/27 04:49:49;;;;;;;;;;;;;;;13.86;44.22;99389.38;5089064;28;20085;-41
2023/04/27 04:52:14;;;;;;;;;;;;;;;14.24;43.41;99392.56;5089933;28;19982;-42
2023/04/27 04:54:39;;;;;;;;;;;;;;;13.85;44.07;99393.06;5088868;28;20016;-42
2023/04/27 04:57:06;;;;;;;;;;;;;;;13.41;44.87;99391.78;5089204;28;19912;-42
2023/04/27 04:59:32;;;;;;;;;;;;;;;13.64;44.69;99399.00;5089518;28;19916;-42
2023/04/27 05:01:57;;;;;;;;;;;;;;;13.58;44.19;99398.06;5089726;28;19912;-42
2023/04/27 05:04:22;;;;;;;;;;;;;;;13.92;44.08;99405.50;5089767;28;20395;-42
2023/04/27 05:06:48;;;;;;;;;;;;;;;14.08;43.07;99412.84;5086670;28;19928;-42
2023/04/27 05:09:13;;;;;;;;;;;;;;;14.04;43.19;99414.34;5092546;28;19959;-43
2023/04/27 05:11:41;;;;;;;;;;;;;;;14.35;42.90;99413.13;5090962;28;19912;-41
2023/04/27 05:14:06;;;;;;;;;;;;;;;14.08;43.27;99412.84;5095466;28;20005;-41
2023/04/27 05:16:32;;;;;;;;;;;;;;;13.53;43.72;99415.84;5089771;28;20373;-41
2023/04/27 05:18:57;;;;;;;;;;;;;;;13.81;43.83;99415.19;5094754;28;19923;-37
2023/04/27 05:21:22;;;;;;;;;;;;;;;14.23;42.96;99428.41;5090495;28;20384;-38
2023/04/27 05:23:48;;;;;;;;;;;;;;;14.98;41.26;99424.84;5090285;28;19964;-37
2023/04/27 05:26:14;;;;;;;;;;;;;;;15.64;40.02;99419.78;5090354;28;19920;-36
2023/04/27 05:28:40;;;;;;;;;;;;;;;15.03;40.95;99429.47;5090079;28;19940;-36
2023/04/27 05:31:05;;;;;;;;;;;;;;;14.77;41.34;99428.19;5090024;28;19935;-42
2023/04/27 05:33:30;;;;;;;;;;;;;;;14.41;42.24;99433.63;5090105;28;19934;-42
2023/04/27 05:35:56;;;;;;;;;;;;;;;14.74;42.19;99432.16;5090321;28;20376;-42
2023/04/27 05:38:21;;;;;;;;;;;;;;;14.64;41.75;99426.59;5090606;28;19993;-42
2023/04/27 05:40:46;;;;;;;;;;;;;;;14.18;42.57;99404.22;5090654;28;20296;-42
2023/04/27 05:43:12;;;;;;;;;;;;;;;14.21;42.85;99435.88;5090705;28;19912;-41
2023/04/27 05:45:40;;;;;;;;;;;;;;;14.23;42.57;99436.44;5090776;28;19958;-42
2023/04/27 05:48:06;;;;;;;;;;;;;;;14.47;41.72;99442.56;5090921;28;19912;-42
2023/04/27 05:50:31;;;;;;;;;;;;;;;14.52;41.97;99437.31;5090373;28;20062;-42
2023/04/27 05:52:56;;;;;;;;;;;;;;;14.57;41.29;99442.00;5090604;28;20032;-42
2023/04/27 05:55:22;;;;;;;;;;;;;;;14.44;41.55;99440.38;5090988;28;19919;-43
2023/04/27 05:57:47;;;;;;;;;;;;;;;14.35;41.84;99447.94;5090850;28;19912;-44
2023/04/27 06:00:13;;;;;;;;;;;;;;;14.34;41.66;99459.69;5090637;28;19916;-43
2023/04/27 06:02:39;;;;;;;;;;;;;;;13.86;42.50;99450.06;5087925;28;19912;-44
2023/04/27 06:05:05;;;;;;;;;;;;;;;14.35;41.45;99461.31;5090115;28;19912;-43
2023/04/27 06:07:30;;;;;;;;;;;;;;;14.31;41.83;99456.69;5090226;28;19952;-43
2023/04/27 06:09:56;;;;;;;;;;;;;;;13.81;42.57;99461.47;5089633;28;19955;-44
2023/04/27 06:12:21;;;;;;;;;;;;;;;14.11;42.36;99462.38;5090376;28;20395;-43
2023/04/27 06:14:46;;;;;;;;;;;;;;;14.19;42.12;99465.53;5088610;28;19912;-43
2023/04/27 06:17:12;;;;;;;;;;;;;;;14.41;41.12;99462.25;5090001;28;19938;-43
2023/04/27 06:19:37;;;;;;;;;;;;;;;14.60;40.76;99454.91;5090008;28;19924;-43
2023/04/27 06:22:03;;;;;;;;;;;;;;;14.58;41.12;99462.34;5090082;28;20384;-44
2023/04/27 06:24:28;;;;;;;;;;;;;;;14.62;41.12;99455.47;5090341;28;19970;-44
2023/04/27 06:26:53;;;;;;;;;;;;;;;14.43;41.01;99457.47;5094228;28;19978;-43
2023/04/27 06:29:19;;;;;;;;;;;;;;;14.20;41.33;99459.16;5094570;28;19951;-44
2023/04/27 06:31:44;;;;;;;;;;;;;;;14.14;41.46;99456.56;5093829;28;19973;-44
2023/04/27 06:34:09;;;;;;;;;;;;;;;14.48;40.89;99457.56;5093891;28;19954;-43
2023/04/27 06:36:35;;;;;;;;;;;;;;;13.87;41.79;99457.03;5094660;28;19916;-43
2023/04/27 06:39:00;;;;;;;;;;;;;;;14.31;41.59;99464.72;5094797;28;20383;-43
2023/04/27 06:41:26;;;;;;;;;;;;;;;14.42;41.38;99458.53;5092475;28;19997;-43
2023/04/27 06:43:51;;;;;;;;;;;;;;;14.06;40.92;99461.22;5093500;28;20370;-42
2023/04/27 06:46:17;;;;;;;;;;;;;;;14.92;40.34;99465.97;5086572;28;20320;-42
2023/04/27 06:48:43;;;;;;;;;;;;;;;15.47;39.44;99466.44;5095214;28;19912;-42
2023/04/27 06:51:11;;;;;;;;;;;;;;;15.12;39.72;99462.88;5094772;28;20341;-43
2023/04/27 06:53:37;;;;;;;;;;;;;;;15.05;39.65;99468.38;5094106;28;20299;-42
2023/04/27 06:56:02;;;;;;;;;;;;;;;15.20;39.25;99470.53;5094399;28;19933;-42
2023/04/27 06:58:28;;;;;;;;;;;;;;;15.13;39.95;99467.19;5092426;28;19912;-43
2023/04/27 07:00:53;;;;;;;;;;;;;;;15.57;39.58;99464.75;5092621;28;20339;-44
2023/04/27 07:03:19;;;;;;;;;;;;;;;15.60;39.72;99456.19;5093145;28;19912;-43
2023/04/27 07:05:45;;;;;;;;;;;;;;;15.45;39.92;99464.00;5093261;28;19958;-42
2023/04/27 07:08:11;;;;;;;;;;;;;;;15.14;40.98;99468.00;5093682;28;19912;-43
2023/04/27 07:10:36;;;;;;;;;;;;;;;15.67;39.25;99468.63;5093527;28;20333;-43
2023/04/27 07:13:01;;;;;;;;;;;;;;;15.81;39.50;99465.41;5093638;28;20368;-43
2023/04/27 07:15:26;;;;;;;;;;;;;;;15.58;39.22;99465.56;5093729;28;19987;-43
2023/04/27 07:17:55;;;;;;;;;;;;;;;15.42;39.87;99465.31;5093563;28;19919;-43
2023/04/27 07:20:20;;;;;;;;;;;;;;;15.29;39.90;99468.28;5093492;28;19912;-43
2023/04/27 07:22:45;;;;;;;;;;;;;;;15.47;39.56;99459.19;5094112;28;20061;-43
2023/04/27 07:25:11;;;;;;;;;;;;;;;15.94;39.24;99469.66;5093676;28;20304;-42
2023/04/27 07:27:37;;;;;;;;;;;;;;;16.03;39.28;99464.69;5093981;28;20007;-42
2023/04/27 07:30:02;;;;;;;;;;;;;;;15.57;39.72;99464.75;5093519;28;19961;-43
2023/04/27 07:32:28;;;;;;;;;;;;;;;15.94;38.92;99461.59;5093593;28;19969;-43
2023/04/27 07:34:56;;;;;;;;;;;;;;;16.33;38.44;99461.59;5093311;28;19934;-43
2023/04/27 07:37:22;;;;;;;;;;;;;;;16.38;38.67;99468.94;5093093;28;19961;-43
2023/04/27 07:39:49;;;;;;;;;;;;;;;16.57;37.82;99469.44;5093380;28;19919;-42
2023/04/27 07:42:14;;;;;;;;;;;;;;;16.80;37.83;99471.84;5093580;28;20307;-44
2023/04/27 07:44:41;;;;;;;;;;;;;;;17.44;37.44;99465.03;5093363;28;19912;-42
2023/04/27 07:47:06;;;;;;;;;;;;;;;16.77;37.30;99467.00;5093435;28;19912;-44
2023/04/27 07:49:33;;;;;;;;;;;;;;;16.80;37.66;99461.13;5093679;28;19920;-42
2023/04/27 07:51:58;;;;;;;;;;;;;;;16.54;37.04;99465.34;5093600;28;19922;-43
2023/04/27 07:54:23;;;;;;;;;;;;;;;16.53;37.51;99471.00;5093275;28;19994;-44
2023/04/27 07:56:49;;;;;;;;;;;;;;;16.77;36.77;99464.31;5092963;28;19912;-42
2023/04/27 07:59:14;;;;;;;;;;;;;;;16.61;37.18;99466.00;5093197;28;19947;-42
2023/04/27 08:01:40;;;;;;;;;;;;;;;17.10;36.50;99467.94;5092549;28;19949;-43
2023/04/27 08:04:05;;;;;;;;;;;;;;;17.24;35.92;99471.03;5092827;28;19991;-42
2023/04/27 08:06:30;;;;;;;;;;;;;;;17.14;35.63;99471.72;5093075;28;19912;-42
2023/04/27 08:08:59;;;;;;;;;;;;;;;17.52;35.16;99464.56;5093001;28;19916;-43
2023/04/27 08:11:25;;;;;;;;;;;;;;;17.75;35.08;99463.41;5092938;28;19914;-45
2023/04/27 08:13:50;;;;;;;;;;;;;;;17.89;34.47;99455.72;5092965;28;19916;-44
2023/04/27 08:16:16;;;;;;;;;;;;;;;18.15;33.77;99462.09;5092973;28;19919;-42
2023/04/27 08:18:42;;;;;;;;;;;;;;;18.17;33.91;99456.44;5092672;28;19955;-42
2023/04/27 08:21:07;;;;;;;;;;;;;;;18.32;33.98;99461.91;5092611;28;20441;-43
2023/04/27 08:23:33;;;;;;;;;;;;;;;17.97;34.42;99455.25;5092611;28;19912;-41
2023/04/27 08:25:58;;;;;;;;;;;;;;;17.73;34.13;99452.09;5092198;28;20014;-42
2023/04/27 08:28:23;;;;;;;;;;;;;;;18.20;33.64;99452.41;5092535;28;19920;-42
2023/04/27 08:30:49;;;;;;;;;;;;;;;18.75;33.79;99445.66;5091834;28;19923;-42
2023/04/27 08:33:14;;;;;;;;;;;;;;;18.65;33.70;99445.63;5092194;28;20455;-42
2023/04/27 08:35:40;;;;;;;;;;;;;;;18.08;34.31;99441.84;5092471;28;20291;-42
2023/04/27 08:38:05;;;;;;;;;;;;;;;18.05;34.23;99445.88;5092137;28;19937;-44
2023/04/27 08:40:31;;;;;;;;;;;;;;;18.11;34.06;99439.44;5092060;28;20372;-42
2023/04/27 08:42:57;;;;;;;;;;;;;;;18.19;34.25;99440.03;5092229;28;20065;-42
2023/04/27 08:45:23;;;;;;;;;;;;;;;18.39;34.07;99444.69;5092415;28;19919;-43
2023/04/27 08:47:48;;;;;;;;;;;;;;;18.62;33.74;99438.06;5091490;28;19912;-43
2023/04/27 08:50:13;;;;;;;;;;;;;;;18.90;34.24;99434.94;5091745;28;19916;-42
2023/04/27 08:52:39;;;;;;;;;;;;;;;19.27;32.69;99431.25;5090872;28;19912;-41
2023/04/27 08:55:06;;;;;;;;;;;;;;;19.79;32.13;99423.19;5091866;28;19912;-43
2023/04/27 08:57:31;;;;;;;;;;;;;;;19.76;31.90;99423.72;5091724;28;19916;-42
2023/04/27 08:59:58;;;;;;;;;;;;;;;20.00;31.63;99421.25;5091740;28;19916;-43
2023/04/27 09:02:24;;;;;;;;;;;;;;;19.94;31.74;99417.75;5091489;28;19912;-43
2023/04/27 09:04:50;;;;;;;;;;;;;;;20.07;31.63;99410.97;5092353;28;19943;-43
2023/04/27 09:07:16;;;;;;;;;;;;;;;20.53;30.68;99418.13;5091822;28;20407;-42
2023/04/27 09:09:42;;;;;;;;;;;;;;;20.55;30.16;99411.34;5091697;28;20077;-43
2023/04/27 09:12:20;;;;;;;;;;;;;;;20.96;30.28;99416.56;5091723;28;19916;-43
2023/04/27 09:15:14;;;;;;;;;;;;;;;20.91;30.30;99407.69;5091497;28;19912;-43
2023/04/27 09:17:40;;;;;;;;;;;;;;;20.24;30.47;99410.66;5082755;28;19962;-42
2023/04/27 09:20:11;;;;;;;;;;;;;;;20.64;29.88;99417.00;5091564;28;19912;-43
2023/04/27 09:22:43;;;;;;;;;;;;;;;20.22;30.09;99408.22;5091654;28;19916;-43
2023/04/27 09:25:08;;;;;;;;;;;;;;;21.32;29.52;99405.47;5091282;28;19920;-42
2023/04/27 09:27:36;;;;;;;;;;;;;;;21.61;29.69;99404.72;5091385;28;19916;-42
2023/04/27 09:30:11;;;;;;;;;;;;;;;22.52;28.20;99407.56;5090798;28;19921;-42
2023/04/27 09:32:36;;;;;;;;;;;;;;;22.05;28.56;99404.56;5091427;28;19934;-40
2023/04/27 09:35:02;;;;;;;;;;;;;;;21.35;29.72;99401.41;5091416;28;19912;-41
2023/04/27 09:37:28;;;;;;;;;;;;;;;21.73;28.71;99390.81;5091235;28;20292;-42
2023/04/27 09:39:54;;;;;;;;;;;;;;;21.99;28.45;99394.88;5091217;28;20387;-43
2023/04/27 09:42:19;;;;;;;;;;;;;;;22.18;29.02;99394.13;5091100;28;19928;-43
2023/04/27 09:44:45;;;;;;;;;;;;;;;22.14;27.78;99396.63;5090497;28;19911;-42
2023/04/27 09:47:12;;;;;;;;;;;;;;;22.32;28.00;99397.78;5091267;28;19912;-43
2023/04/27 09:49:37;;;;;;;;;;;;;;;21.59;28.86;99401.50;5091019;28;20411;-43
2023/04/27 09:52:03;;;;;;;;;;;;;;;21.23;29.01;99407.19;5090797;28;19953;-43
2023/04/27 09:54:31;;;;;;;;;;;;;;;20.95;29.66;99393.31;5090384;28;20144;-41
2023/04/27 09:56:56;;;;;;;;;;;;;;;21.17;29.76;99400.19;5090645;28;20386;-41
2023/04/27 09:59:25;;;;;;;;;;;;;;;22.11;28.68;99404.50;5089831;28;19912;-42
2023/04/27 10:01:53;;;;;;;;;;;;;;;21.47;28.59;99407.28;5091068;28;19959;-42
2023/04/27 10:04:30;;;;;;;;;;;;;;;21.13;29.27;99401.84;5090679;28;19923;-42
2023/04/27 10:07:16;;;;;;;;;;;;;;;21.39;28.85;99392.44;5090651;28;19998;-42
2023/04/27 10:09:41;;;;;;;;;;;;;;;21.22;29.55;99395.53;5089208;28;19916;-41
2023/04/27 10:12:19;;;;;;;;;;;;;;;21.51;28.42;99391.28;5090522;28;19923;-42
2023/04/27 10:14:48;;;;;;;;;;;;;;;21.59;28.79;99394.19;5090579;28;19913;-42
2023/04/27 10:17:14;;;;;;;;;;;;;;;21.15;29.25;99391.53;5090119;28;19934;-43
2023/04/27 10:19:40;;;;;;;;;;;;;;;22.12;28.16;99389.84;5090542;28;19940;-43
2023/04/27 10:22:08;;;;;;;;;;;;;;;22.43;27.66;99393.06;5090625;28;19966;-42
2023/04/27 10:24:36;;;;;;;;;;;;;;;20.73;29.30;99384.78;5090140;28;20122;-42
2023/04/27 10:27:06;;;;;;;;;;;;;;;20.01;31.74;99402.09;5090335;28;19916;-42
2023/04/27 10:29:41;;;;;;;;;;;;;;;20.49;30.34;99396.25;5090448;28;20423;-42
2023/04/27 10:32:08;;;;;;;;;;;;;;;19.70;30.62;99398.59;5090441;28;19964;-42
2023/04/27 10:34:35;;;;;;;;;;;;;;;20.46;29.82;99388.66;5090437;28;19912;-43
2023/04/27 10:37:20;;;;;;;;;;;;;;;20.86;29.54;99379.56;5090621;28;19922;-41
2023/04/27 10:39:46;;;;;;;;;;;;;;;19.68;31.17;99379.16;5090253;28;19998;-43
2023/04/27 10:42:11;;;;;;;;;;;;;;;20.19;32.09;99394.47;5090370;28;19970;-42
2023/04/27 10:44:37;;;;;;;;;;;;;;;19.60;32.99;99398.59;5090334;28;19958;-43
2023/04/27 10:47:15;;;;;;;;;;;;;;;19.05;33.90;99401.81;5090408;28;19911;-42
2023/04/27 10:49:41;;;;;;;;;;;;;;;19.40;33.25;99392.16;5090336;28;20030;-41
2023/04/27 10:52:06;;;;;;;;;;;;;;;19.37;33.04;99402.66;5090334;28;19912;-43
2023/04/27 10:54:32;;;;;;;;;;;;;;;19.07;33.15;99406.94;5090355;28;20448;-43
2023/04/27 10:57:16;;;;;;;;;;;;;;;19.56;31.87;99405.63;5089900;28;19912;-43
2023/04/27 10:59:53;;;;;;;;;;;;;;;19.88;31.55;99408.06;5090270;28;19998;-42
2023/04/27 11:02:26;;;;;;;;;;;;;;;19.98;31.13;99407.22;5090171;28;19999;-42
2023/04/27 11:04:51;;;;;;;;;;;;;;;19.65;30.90;99412.09;5090387;28;19914;-43
2023/04/27 11:07:26;;;;;;;;;;;;;;;19.41;31.36;99409.13;5089729;28;19923;-43
2023/04/27 11:09:52;;;;;;;;;;;;;;;19.05;31.87;99418.00;5090314;28;20307;-43
2023/04/27 11:12:18;;;;;;;;;;;;;;;19.17;30.93;99415.03;5093137;28;20380;-42
2023/04/27 11:14:43;;;;;;;;;;;;;;;19.01;31.54;99425.00;5094188;28;19912;-42
2023/04/27 11:17:08;;;;;;;;;;;;;;;18.92;31.46;99413.13;5094068;28;20002;-42
2023/04/27 11:19:42;;;;;;;;;;;;;;;19.36;30.58;99415.31;5093353;28;19977;-42
2023/04/27 11:22:08;;;;;;;;;;;;;;;20.26;29.68;99417.41;5093722;28;19913;-43
2023/04/27 11:24:33;;;;;;;;;;;;;;;20.20;30.37;99415.81;5093542;28;19912;-44
2023/04/27 11:26:59;;;;;;;;;;;;;;;19.87;30.44;99412.63;5093769;28;19930;-42
2023/04/27 11:29:24;;;;;;;;;;;;;;;20.54;28.81;99414.31;5093483;28;20353;-42
2023/04/27 11:31:50;;;;;;;;;;;;;;;20.09;29.94;99417.72;5093629;28;19913;-42
2023/04/27 11:34:20;;;;;;;;;;;;;;;20.37;29.77;99425.47;5093389;28;20311;-43
2023/04/27 11:36:55;;;;;;;;;;;;;;;20.66;29.53;99421.06;5093657;28;20011;-42
2023/04/27 11:39:21;;;;;;;;;;;;;;;20.59;29.37;99417.00;5093465;28;20307;-42
2023/04/27 11:41:46;;;;;;;;;;;;;;;20.81;29.35;99430.97;5093495;28;19912;-42
2023/04/27 11:44:12;;;;;;;;;;;;;;;20.13;28.30;99420.69;5093713;28;20222;-42
2023/04/27 11:46:37;;;;;;;;;;;;;;;19.90;28.49;99422.09;5093810;28;20368;-43
2023/04/27 11:49:04;;;;;;;;;;;;;;;20.44;28.24;99413.25;5093003;28;19990;-42
2023/04/27 11:51:31;;;;;;;;;;;;;;;20.37;28.65;99417.34;5093319;28;19942;-42
2023/04/27 11:54:00;;;;;;;;;;;;;;;20.72;28.19;99419.13;5093031;28;19919;-42
2023/04/27 11:56:35;;;;;;;;;;;;;;;20.34;27.77;99410.63;5092657;28;19912;-42
2023/04/27 11:59:00;;;;;;;;;;;;;;;20.96;27.11;99408.47;5092818;28;20410;-43
2023/04/27 12:01:25;;;;;;;;;;;;;;;20.92;28.67;99406.56;5092984;28;19912;-43
2023/04/27 12:03:51;;;;;;;;;;;;;;;20.29;28.53;99411.44;5092992;28;19912;-43
2023/04/27 12:06:22;;;;;;;;;;;;;;;20.10;28.45;99411.25;5093038;28;19912;-42
2023/04/27 12:08:47;;;;;;;;;;;;;;;20.82;28.08;99408.25;5092467;28;19912;-42
2023/04/27 12:11:13;;;;;;;;;;;;;;;21.15;27.50;99410.47;5092558;28;19969;-42
2023/04/27 12:13:38;;;;;;;;;;;;;;;20.35;27.29;99406.00;5092554;28;19915;-43
2023/04/27 12:16:04;;;;;;;;;;;;;;;20.02;28.70;99414.47;5091916;28;20319;-43
2023/04/27 12:18:30;;;;;;;;;;;;;;;20.83;27.34;99415.28;5092563;28;20358;-43
2023/04/27 12:20:55;;;;;;;;;;;;;;;21.57;27.25;99399.09;5092476;28;19912;-44
2023/04/27 12:23:20;;;;;;;;;;;;;;;21.44;26.77;99410.56;5091578;28;19912;-43
2023/04/27 12:25:45;;;;;;;;;;;;;;;21.79;26.63;99403.22;5092400;28;19934;-42
2023/04/27 12:28:16;;;;;;;;;;;;;;;22.22;25.61;99411.44;5092264;28;19995;-42
2023/04/27 12:30:41;;;;;;;;;;;;;;;21.75;25.98;99400.25;5092338;28;19920;-43
2023/04/27 12:33:09;;;;;;;;;;;;;;;21.33;26.04;99409.81;5092078;28;19916;-43
2023/04/27 12:35:35;;;;;;;;;;;;;;;22.03;25.45;99406.75;5092441;28;19912;-43
2023/04/27 12:38:02;;;;;;;;;;;;;;;21.98;25.77;99406.00;5092320;28;20407;-43
2023/04/27 12:40:27;;;;;;;;;;;;;;;22.51;25.05;99402.44;5092448;28;20455;-47
2023/04/27 12:42:52;;;;;;;;;;;;;;;22.84;24.90;99406.06;5092485;28;20003;-46